sensor_id;sensor_type;location;lat;lon;timestamp;temperature;humidity
32293;DHT22;43233;48.608;8.838;2023-06-04T00:00:58;16.40;43.70
32293;DHT22;43233;48.608;8.838;2023-06-04T00:03:24;16.40;43.80
32293;DHT22;43233;48.608;8.838;2023-06-04T00:05:49;16.40;43.80
32293;DHT22;43233;48.608;8.838;2023-06-04T00:08:15;16.30;43.90
32293;DHT22;43233;48.608;8.838;2023-06-04T00:10:41;16.30;44.10
32293;DHT22;43233;48.608;8.838;2023-06-04T00:13:07;16.20;44.00
32293;DHT22;43233;48.608;8.838;2023-06-04T00:15:32;16.20;43.90
32293;DHT22;43233;48.608;8.838;2023-06-04T00:17:58;16.20;44.10
32293;DHT22;43233;48.608;8.838;2023-06-04T00:20:23;16.20;44.10
32293;DHT22;43233;48.608;8.838;2023-06-04T00:22:49;16.20;44.40
32293;DHT22;43233;48.608;8.838;2023-06-04T00:25:15;16.10;44.50
32293;DHT22;43233;48.608;8.838;2023-06-04T00:27:40;16.10;44.50
32293;DHT22;43233;48.608;8.838;2023-06-04T00:30:07;16.10;44.50
32293;DHT22;43233;48.608;8.838;2023-06-04T00:32:32;16.10;44.60
32293;DHT22;43233;48.608;8.838;2023-06-04T00:34:58;16.00;44.60
32293;DHT22;43233;48.608;8.838;2023-06-04T00:37:24;16.00;44.80
32293;DHT22;43233;48.608;8.838;2023-06-04T00:39:50;16.00;44.90
32293;DHT22;43233;48.608;8.838;2023-06-04T00:42:16;16.00;44.90
32293;DHT22;43233;48.608;8.838;2023-06-04T00:44:42;15.90;45.10
32293;DHT22;43233;48.608;8.838;2023-06-04T00:47:14;15.90;45.30
32293;DHT22;43233;48.608;8.838;2023-06-04T00:49:40;15.90;45.60
32293;DHT22;43233;48.608;8.838;2023-06-04T00:52:10;15.80;45.70
32293;DHT22;43233;48.608;8.838;2023-06-04T00:54:37;15.70;45.90
32293;DHT22;43233;48.608;8.838;2023-06-04T00:57:04;15.70;46.20
32293;DHT22;43233;48.608;8.838;2023-06-04T00:59:31;15.60;46.40
32293;DHT22;43233;48.608;8.838;2023-06-04T01:02:03;15.60;46.50
32293;DHT22;43233;48.608;8.838;2023-06-04T01:04:54;15.50;46.70
32293;DHT22;43233;48.608;8.838;2023-06-04T01:07:21;15.50;46.70
32293;DHT22;43233;48.608;8.838;2023-06-04T01:09:48;15.40;46.80
32293;DHT22;43233;48.608;8.838;2023-06-04T01:12:14;15.40;47.10
32293;DHT22;43233;48.608;8.838;2023-06-04T01:14:41;15.40;48.20
32293;DHT22;43233;48.608;8.838;2023-06-04T01:17:26;15.40;47.10
32293;DHT22;43233;48.608;8.838;2023-06-04T01:20:18;15.30;47.10
32293;DHT22;43233;48.608;8.838;2023-06-04T01:25:33;15.30;47.40
32293;DHT22;43233;48.608;8.838;2023-06-04T01:28:01;15.30;47.40
32293;DHT22;43233;48.608;8.838;2023-06-04T01:30:32;15.30;47.50
32293;DHT22;43233;48.608;8.838;2023-06-04T01:32:59;15.30;47.60
32293;DHT22;43233;48.608;8.838;2023-06-04T01:35:26;15.20;47.50
32293;DHT22;43233;48.608;8.838;2023-06-04T01:37:52;15.20;47.60
32293;DHT22;43233;48.608;8.838;2023-06-04T01:40:18;15.20;47.80
32293;DHT22;43233;48.608;8.838;2023-06-04T01:42:44;15.10;47.90
32293;DHT22;43233;48.608;8.838;2023-06-04T01:45:10;15.10;47.90
32293;DHT22;43233;48.608;8.838;2023-06-04T01:47:36;15.00;47.90
32293;DHT22;43233;48.608;8.838;2023-06-04T01:50:03;15.00;48.20
32293;DHT22;43233;48.608;8.838;2023-06-04T01:52:29;15.00;48.10
32293;DHT22;43233;48.608;8.838;2023-06-04T01:54:54;15.00;48.10
32293;DHT22;43233;48.608;8.838;2023-06-04T01:57:21;14.90;48.20
32293;DHT22;43233;48.608;8.838;2023-06-04T01:59:47;14.90;48.20
32293;DHT22;43233;48.608;8.838;2023-06-04T02:02:13;14.90;48.40
32293;DHT22;43233;48.608;8.838;2023-06-04T02:04:39;14.90;48.50
32293;DHT22;43233;48.608;8.838;2023-06-04T02:07:08;14.90;48.50
32293;DHT22;43233;48.608;8.838;2023-06-04T02:09:34;14.90;49.50
32293;DHT22;43233;48.608;8.838;2023-06-04T02:12:00;14.80;48.60
32293;DHT22;43233;48.608;8.838;2023-06-04T02:14:26;14.80;48.80
32293;DHT22;43233;48.608;8.838;2023-06-04T02:16:52;14.80;48.80
32293;DHT22;43233;48.608;8.838;2023-06-04T02:19:19;14.80;48.80
32293;DHT22;43233;48.608;8.838;2023-06-04T02:21:46;14.70;48.90
32293;DHT22;43233;48.608;8.838;2023-06-04T02:24:12;14.70;48.80
32293;DHT22;43233;48.608;8.838;2023-06-04T02:26:38;14.70;48.90
32293;DHT22;43233;48.608;8.838;2023-06-04T02:29:04;14.70;48.80
32293;DHT22;43233;48.608;8.838;2023-06-04T02:31:29;14.70;48.80
32293;DHT22;43233;48.608;8.838;2023-06-04T02:33:56;14.60;48.90
32293;DHT22;43233;48.608;8.838;2023-06-04T02:36:22;14.60;49.00
32293;DHT22;43233;48.608;8.838;2023-06-04T02:38:47;14.60;49.10
32293;DHT22;43233;48.608;8.838;2023-06-04T02:41:13;14.50;49.30
32293;DHT22;43233;48.608;8.838;2023-06-04T02:43:38;14.50;49.50
32293;DHT22;43233;48.608;8.838;2023-06-04T02:46:04;14.40;49.50
32293;DHT22;43233;48.608;8.838;2023-06-04T02:48:31;14.40;49.50
32293;DHT22;43233;48.608;8.838;2023-06-04T02:50:57;14.40;49.60
32293;DHT22;43233;48.608;8.838;2023-06-04T02:53:22;14.40;49.90
32293;DHT22;43233;48.608;8.838;2023-06-04T02:55:49;14.30;50.00
32293;DHT22;43233;48.608;8.838;2023-06-04T02:58:16;14.30;50.20
32293;DHT22;43233;48.608;8.838;2023-06-04T03:00:42;14.30;50.30
32293;DHT22;43233;48.608;8.838;2023-06-04T03:03:07;14.20;50.50
32293;DHT22;43233;48.608;8.838;2023-06-04T03:05:33;14.20;50.50
32293;DHT22;43233;48.608;8.838;2023-06-04T03:08:01;14.10;50.50
32293;DHT22;43233;48.608;8.838;2023-06-04T03:10:27;14.10;50.50
32293;DHT22;43233;48.608;8.838;2023-06-04T03:12:53;14.10;50.50
32293;DHT22;43233;48.608;8.838;2023-06-04T03:15:18;14.00;50.10
32293;DHT22;43233;48.608;8.838;2023-06-04T03:17:44;14.00;50.30
32293;DHT22;43233;48.608;8.838;2023-06-04T03:20:10;14.00;50.50
32293;DHT22;43233;48.608;8.838;2023-06-04T03:22:36;13.90;50.70
32293;DHT22;43233;48.608;8.838;2023-06-04T03:25:02;13.90;50.80
32293;DHT22;43233;48.608;8.838;2023-06-04T03:27:29;13.80;50.80
32293;DHT22;43233;48.608;8.838;2023-06-04T03:29:55;13.80;50.90
32293;DHT22;43233;48.608;8.838;2023-06-04T03:32:21;13.80;50.90
32293;DHT22;43233;48.608;8.838;2023-06-04T03:34:46;13.80;51.00
32293;DHT22;43233;48.608;8.838;2023-06-04T03:37:12;13.70;51.30
32293;DHT22;43233;48.608;8.838;2023-06-04T03:39:37;13.70;51.30
32293;DHT22;43233;48.608;8.838;2023-06-04T03:42:03;13.70;51.30
32293;DHT22;43233;48.608;8.838;2023-06-04T03:44:30;13.60;51.40
32293;DHT22;43233;48.608;8.838;2023-06-04T03:46:55;13.60;51.70
32293;DHT22;43233;48.608;8.838;2023-06-04T03:49:21;13.60;52.00
32293;DHT22;43233;48.608;8.838;2023-06-04T03:51:47;13.50;52.10
32293;DHT22;43233;48.608;8.838;2023-06-04T03:54:14;13.50;52.40
32293;DHT22;43233;48.608;8.838;2023-06-04T03:56:43;13.40;52.40
32293;DHT22;43233;48.608;8.838;2023-06-04T03:59:08;13.30;52.70
32293;DHT22;43233;48.608;8.838;2023-06-04T04:01:34;13.20;53.00
32293;DHT22;43233;48.608;8.838;2023-06-04T04:04:00;13.20;53.30
32293;DHT22;43233;48.608;8.838;2023-06-04T04:06:25;13.10;53.70
32293;DHT22;43233;48.608;8.838;2023-06-04T04:08:51;13.00;54.10
32293;DHT22;43233;48.608;8.838;2023-06-04T04:11:17;12.90;54.40
32293;DHT22;43233;48.608;8.838;2023-06-04T04:13:45;13.00;54.40
32293;DHT22;43233;48.608;8.838;2023-06-04T04:16:11;13.00;54.40
32293;DHT22;43233;48.608;8.838;2023-06-04T04:18:37;13.00;54.10
32293;DHT22;43233;48.608;8.838;2023-06-04T04:21:03;13.10;54.10
32293;DHT22;43233;48.608;8.838;2023-06-04T04:23:30;13.10;54.30
32293;DHT22;43233;48.608;8.838;2023-06-04T04:25:58;13.10;53.60
32293;DHT22;43233;48.608;8.838;2023-06-04T04:28:26;13.20;53.50
32293;DHT22;43233;48.608;8.838;2023-06-04T04:30:57;13.20;53.40
32293;DHT22;43233;48.608;8.838;2023-06-04T04:33:25;13.10;54.10
32293;DHT22;43233;48.608;8.838;2023-06-04T04:35:51;13.10;54.60
32293;DHT22;43233;48.608;8.838;2023-06-04T04:38:19;13.10;55.00
32293;DHT22;43233;48.608;8.838;2023-06-04T04:40:44;13.10;55.30
32293;DHT22;43233;48.608;8.838;2023-06-04T04:43:13;13.10;55.10
32293;DHT22;43233;48.608;8.838;2023-06-04T04:45:39;13.20;55.30
32293;DHT22;43233;48.608;8.838;2023-06-04T04:48:04;13.20;55.30
32293;DHT22;43233;48.608;8.838;2023-06-04T04:50:30;13.30;55.10
32293;DHT22;43233;48.608;8.838;2023-06-04T04:52:57;13.40;55.00
32293;DHT22;43233;48.608;8.838;2023-06-04T04:55:23;13.40;55.10
32293;DHT22;43233;48.608;8.838;2023-06-04T04:57:48;13.50;54.80
32293;DHT22;43233;48.608;8.838;2023-06-04T05:00:15;13.60;54.70
32293;DHT22;43233;48.608;8.838;2023-06-04T05:02:41;13.70;54.30
32293;DHT22;43233;48.608;8.838;2023-06-04T05:05:06;13.80;54.00
32293;DHT22;43233;48.608;8.838;2023-06-04T05:07:32;13.80;53.60
32293;DHT22;43233;48.608;8.838;2023-06-04T05:09:58;13.90;51.50
32293;DHT22;43233;48.608;8.838;2023-06-04T05:12:25;13.90;51.40
32293;DHT22;43233;48.608;8.838;2023-06-04T05:14:52;14.00;51.40
32293;DHT22;43233;48.608;8.838;2023-06-04T05:17:17;14.10;51.30
32293;DHT22;43233;48.608;8.838;2023-06-04T05:19:47;14.20;50.60
32293;DHT22;43233;48.608;8.838;2023-06-04T05:22:12;14.30;50.10
32293;DHT22;43233;48.608;8.838;2023-06-04T05:24:41;14.40;49.60
32293;DHT22;43233;48.608;8.838;2023-06-04T05:27:06;14.50;48.30
32293;DHT22;43233;48.608;8.838;2023-06-04T05:29:34;14.50;48.80
32293;DHT22;43233;48.608;8.838;2023-06-04T05:32:00;14.60;48.40
32293;DHT22;43233;48.608;8.838;2023-06-04T05:34:26;14.60;47.90
32293;DHT22;43233;48.608;8.838;2023-06-04T05:36:52;14.70;48.10
32293;DHT22;43233;48.608;8.838;2023-06-04T05:39:18;14.70;48.40
32293;DHT22;43233;48.608;8.838;2023-06-04T05:41:44;14.80;48.00
32293;DHT22;43233;48.608;8.838;2023-06-04T05:44:10;14.80;47.50
32293;DHT22;43233;48.608;8.838;2023-06-04T05:46:36;14.90;48.40
32293;DHT22;43233;48.608;8.838;2023-06-04T05:49:02;14.90;48.70
32293;DHT22;43233;48.608;8.838;2023-06-04T05:51:27;14.90;48.50
32293;DHT22;43233;48.608;8.838;2023-06-04T05:53:54;15.00;48.20
32293;DHT22;43233;48.608;8.838;2023-06-04T05:56:20;15.10;47.30
32293;DHT22;43233;48.608;8.838;2023-06-04T05:58:51;15.10;47.00
32293;DHT22;43233;48.608;8.838;2023-06-04T06:01:17;15.10;47.00
32293;DHT22;43233;48.608;8.838;2023-06-04T06:03:43;15.20;46.40
32293;DHT22;43233;48.608;8.838;2023-06-04T06:06:09;15.20;45.90
32293;DHT22;43233;48.608;8.838;2023-06-04T06:08:38;15.20;46.40
32293;DHT22;43233;48.608;8.838;2023-06-04T06:11:05;15.30;45.90
32293;DHT22;43233;48.608;8.838;2023-06-04T06:13:31;15.40;46.20
32293;DHT22;43233;48.608;8.838;2023-06-04T06:15:56;15.40;45.70
32293;DHT22;43233;48.608;8.838;2023-06-04T06:18:22;15.50;45.60
32293;DHT22;43233;48.608;8.838;2023-06-04T06:20:48;15.60;45.50
32293;DHT22;43233;48.608;8.838;2023-06-04T06:23:13;15.60;44.80
32293;DHT22;43233;48.608;8.838;2023-06-04T06:25:39;15.70;43.30
32293;DHT22;43233;48.608;8.838;2023-06-04T06:28:11;15.80;43.80
32293;DHT22;43233;48.608;8.838;2023-06-04T06:30:37;15.80;44.40
32293;DHT22;43233;48.608;8.838;2023-06-04T06:33:02;15.90;44.20
32293;DHT22;43233;48.608;8.838;2023-06-04T06:35:28;16.00;43.30
32293;DHT22;43233;48.608;8.838;2023-06-04T06:37:54;16.10;42.80
32293;DHT22;43233;48.608;8.838;2023-06-04T06:40:19;16.20;44.60
32293;DHT22;43233;48.608;8.838;2023-06-04T06:42:49;16.30;43.80
32293;DHT22;43233;48.608;8.838;2023-06-04T06:45:16;16.30;42.40
32293;DHT22;43233;48.608;8.838;2023-06-04T06:47:42;16.40;43.40
32293;DHT22;43233;48.608;8.838;2023-06-04T06:50:08;16.40;43.90
32293;DHT22;43233;48.608;8.838;2023-06-04T06:52:33;16.50;43.80
32293;DHT22;43233;48.608;8.838;2023-06-04T06:54:59;16.50;43.40
32293;DHT22;43233;48.608;8.838;2023-06-04T06:57:25;16.60;43.20
32293;DHT22;43233;48.608;8.838;2023-06-04T06:59:50;16.60;44.00
32293;DHT22;43233;48.608;8.838;2023-06-04T07:02:19;16.70;43.40
32293;DHT22;43233;48.608;8.838;2023-06-04T07:04:45;16.80;42.70
32293;DHT22;43233;48.608;8.838;2023-06-04T07:07:10;16.80;42.20
32293;DHT22;43233;48.608;8.838;2023-06-04T07:09:36;16.80;44.00
32293;DHT22;43233;48.608;8.838;2023-06-04T07:12:01;16.90;43.40
32293;DHT22;43233;48.608;8.838;2023-06-04T07:14:27;16.90;45.10
32293;DHT22;43233;48.608;8.838;2023-06-04T07:16:52;17.00;45.00
32293;DHT22;43233;48.608;8.838;2023-06-04T07:19:18;17.00;44.70
32293;DHT22;43233;48.608;8.838;2023-06-04T07:21:44;17.10;45.50
32293;DHT22;43233;48.608;8.838;2023-06-04T07:24:10;17.20;45.00
32293;DHT22;43233;48.608;8.838;2023-06-04T07:26:36;17.20;44.70
32293;DHT22;43233;48.608;8.838;2023-06-04T07:29:02;17.30;44.70
32293;DHT22;43233;48.608;8.838;2023-06-04T07:31:28;17.40;44.40
32293;DHT22;43233;48.608;8.838;2023-06-04T07:33:53;17.50;45.20
32293;DHT22;43233;48.608;8.838;2023-06-04T07:36:19;17.60;45.10
32293;DHT22;43233;48.608;8.838;2023-06-04T07:38:46;17.60;44.00
32293;DHT22;43233;48.608;8.838;2023-06-04T07:41:11;17.70;44.60
32293;DHT22;43233;48.608;8.838;2023-06-04T07:43:37;17.80;43.80
32293;DHT22;43233;48.608;8.838;2023-06-04T07:46:06;17.90;42.90
32293;DHT22;43233;48.608;8.838;2023-06-04T07:48:31;18.00;44.30
32293;DHT22;43233;48.608;8.838;2023-06-04T07:51:01;18.00;43.70
32293;DHT22;43233;48.608;8.838;2023-06-04T07:53:27;18.20;43.80
32293;DHT22;43233;48.608;8.838;2023-06-04T07:55:53;18.20;44.20
32293;DHT22;43233;48.608;8.838;2023-06-04T07:58:19;18.30;44.10
32293;DHT22;43233;48.608;8.838;2023-06-04T08:00:45;18.40;43.00
32293;DHT22;43233;48.608;8.838;2023-06-04T08:03:11;18.50;43.90
32293;DHT22;43233;48.608;8.838;2023-06-04T08:05:36;18.60;43.00
32293;DHT22;43233;48.608;8.838;2023-06-04T08:08:02;18.70;44.10
32293;DHT22;43233;48.608;8.838;2023-06-04T08:10:29;18.90;43.70
32293;DHT22;43233;48.608;8.838;2023-06-04T08:12:55;19.00;42.40
32293;DHT22;43233;48.608;8.838;2023-06-04T08:15:21;19.10;41.50
32293;DHT22;43233;48.608;8.838;2023-06-04T08:17:46;19.20;42.10
32293;DHT22;43233;48.608;8.838;2023-06-04T08:20:12;19.30;42.50
32293;DHT22;43233;48.608;8.838;2023-06-04T08:22:37;19.40;41.90
32293;DHT22;43233;48.608;8.838;2023-06-04T08:25:03;19.50;40.40
32293;DHT22;43233;48.608;8.838;2023-06-04T08:27:30;19.50;40.10
32293;DHT22;43233;48.608;8.838;2023-06-04T08:29:56;19.60;40.30
32293;DHT22;43233;48.608;8.838;2023-06-04T08:32:25;19.70;39.90
32293;DHT22;43233;48.608;8.838;2023-06-04T08:34:51;19.80;40.40
32293;DHT22;43233;48.608;8.838;2023-06-04T08:37:17;19.90;39.60
32293;DHT22;43233;48.608;8.838;2023-06-04T08:39:43;20.00;38.60
32293;DHT22;43233;48.608;8.838;2023-06-04T08:42:34;20.10;37.40
32293;DHT22;43233;48.608;8.838;2023-06-04T08:45:04;20.20;38.80
32293;DHT22;43233;48.608;8.838;2023-06-04T08:47:35;20.30;38.30
32293;DHT22;43233;48.608;8.838;2023-06-04T08:50:02;20.40;38.30
32293;DHT22;43233;48.608;8.838;2023-06-04T08:52:28;20.50;37.70
32293;DHT22;43233;48.608;8.838;2023-06-04T08:54:54;20.60;36.30
32293;DHT22;43233;48.608;8.838;2023-06-04T08:57:20;20.60;36.00
32293;DHT22;43233;48.608;8.838;2023-06-04T08:59:46;20.70;35.90
32293;DHT22;43233;48.608;8.838;2023-06-04T09:02:14;20.80;35.50
32293;DHT22;43233;48.608;8.838;2023-06-04T09:04:40;20.80;33.90
32293;DHT22;43233;48.608;8.838;2023-06-04T09:07:06;20.90;33.30
32293;DHT22;43233;48.608;8.838;2023-06-04T09:09:37;21.00;33.50
32293;DHT22;43233;48.608;8.838;2023-06-04T09:12:03;21.10;33.90
32293;DHT22;43233;48.608;8.838;2023-06-04T09:14:31;21.10;32.30
32293;DHT22;43233;48.608;8.838;2023-06-04T09:16:57;21.20;33.30
32293;DHT22;43233;48.608;8.838;2023-06-04T09:19:24;21.30;32.90
32293;DHT22;43233;48.608;8.838;2023-06-04T09:24:17;21.40;31.30
32293;DHT22;43233;48.608;8.838;2023-06-04T09:26:43;21.40;33.80
32293;DHT22;43233;48.608;8.838;2023-06-04T09:29:09;21.40;33.00
32293;DHT22;43233;48.608;8.838;2023-06-04T09:31:35;21.50;32.60
32293;DHT22;43233;48.608;8.838;2023-06-04T09:34:03;21.60;33.00
32293;DHT22;43233;48.608;8.838;2023-06-04T09:36:33;21.70;31.40
32293;DHT22;43233;48.608;8.838;2023-06-04T09:39:01;21.80;30.80
32293;DHT22;43233;48.608;8.838;2023-06-04T09:41:28;21.80;31.20
32293;DHT22;43233;48.608;8.838;2023-06-04T09:44:03;21.90;31.30
32293;DHT22;43233;48.608;8.838;2023-06-04T09:46:29;22.00;32.20
32293;DHT22;43233;48.608;8.838;2023-06-04T09:49:05;22.10;31.80
32293;DHT22;43233;48.608;8.838;2023-06-04T09:51:31;22.20;30.70
32293;DHT22;43233;48.608;8.838;2023-06-04T09:54:02;22.20;32.20
32293;DHT22;43233;48.608;8.838;2023-06-04T09:56:28;22.30;32.20
32293;DHT22;43233;48.608;8.838;2023-06-04T09:58:59;22.50;31.30
32293;DHT22;43233;48.608;8.838;2023-06-04T10:01:27;22.60;31.50
32293;DHT22;43233;48.608;8.838;2023-06-04T10:03:54;22.80;31.60
32293;DHT22;43233;48.608;8.838;2023-06-04T10:06:20;22.90;30.80
32293;DHT22;43233;48.608;8.838;2023-06-04T10:08:48;23.20;31.00
32293;DHT22;43233;48.608;8.838;2023-06-04T10:11:17;23.40;30.20
32293;DHT22;43233;48.608;8.838;2023-06-04T10:13:51;23.50;30.10
32293;DHT22;43233;48.608;8.838;2023-06-04T10:16:19;23.60;30.00
32293;DHT22;43233;48.608;8.838;2023-06-04T10:18:46;23.80;29.30
32293;DHT22;43233;48.608;8.838;2023-06-04T10:21:13;23.90;29.10
32293;DHT22;43233;48.608;8.838;2023-06-04T10:23:40;24.00;29.50
32293;DHT22;43233;48.608;8.838;2023-06-04T10:26:07;24.10;28.80
32293;DHT22;43233;48.608;8.838;2023-06-04T10:28:34;24.10;29.00
32293;DHT22;43233;48.608;8.838;2023-06-04T10:31:00;24.20;28.80
32293;DHT22;43233;48.608;8.838;2023-06-04T10:33:26;24.20;28.50
32293;DHT22;43233;48.608;8.838;2023-06-04T10:35:54;24.30;28.30
32293;DHT22;43233;48.608;8.838;2023-06-04T10:38:21;24.40;27.90
32293;DHT22;43233;48.608;8.838;2023-06-04T10:40:47;24.50;28.40
32293;DHT22;43233;48.608;8.838;2023-06-04T10:43:14;24.50;28.10
32293;DHT22;43233;48.608;8.838;2023-06-04T10:45:42;24.50;28.00
32293;DHT22;43233;48.608;8.838;2023-06-04T10:48:12;24.60;28.20
32293;DHT22;43233;48.608;8.838;2023-06-04T10:50:52;24.60;28.20
32293;DHT22;43233;48.608;8.838;2023-06-04T10:53:21;24.60;28.90
32293;DHT22;43233;48.608;8.838;2023-06-04T10:55:49;24.60;26.80
32293;DHT22;43233;48.608;8.838;2023-06-04T10:58:15;24.60;28.90
32293;DHT22;43233;48.608;8.838;2023-06-04T11:00:45;24.70;29.30
32293;DHT22;43233;48.608;8.838;2023-06-04T11:03:13;24.80;28.80
32293;DHT22;43233;48.608;8.838;2023-06-04T11:05:43;24.90;28.20
32293;DHT22;43233;48.608;8.838;2023-06-04T11:08:10;25.00;27.70
32293;DHT22;43233;48.608;8.838;2023-06-04T11:10:39;25.10;27.80
32293;DHT22;43233;48.608;8.838;2023-06-04T11:13:05;25.20;28.00
32293;DHT22;43233;48.608;8.838;2023-06-04T11:15:57;25.20;26.90
32293;DHT22;43233;48.608;8.838;2023-06-04T11:18:23;25.30;27.40
32293;DHT22;43233;48.608;8.838;2023-06-04T11:20:58;25.40;26.80
32293;DHT22;43233;48.608;8.838;2023-06-04T11:23:24;25.50;25.90
32293;DHT22;43233;48.608;8.838;2023-06-04T11:25:52;25.50;26.10
32293;DHT22;43233;48.608;8.838;2023-06-04T11:28:18;25.60;25.10
32293;DHT22;43233;48.608;8.838;2023-06-04T11:30:44;25.50;24.90
32293;DHT22;43233;48.608;8.838;2023-06-04T11:33:20;25.60;26.00
32293;DHT22;43233;48.608;8.838;2023-06-04T11:35:46;25.70;25.40
32293;DHT22;43233;48.608;8.838;2023-06-04T11:38:11;25.80;25.40
32293;DHT22;43233;48.608;8.838;2023-06-04T11:40:37;25.90;25.10
32293;DHT22;43233;48.608;8.838;2023-06-04T11:43:03;26.00;25.70
32293;DHT22;43233;48.608;8.838;2023-06-04T11:45:29;26.00;24.10
32293;DHT22;43233;48.608;8.838;2023-06-04T11:47:56;26.10;26.00
32293;DHT22;43233;48.608;8.838;2023-06-04T11:50:23;26.20;25.90
32293;DHT22;43233;48.608;8.838;2023-06-04T11:52:52;26.30;24.60
32293;DHT22;43233;48.608;8.838;2023-06-04T11:55:19;26.30;23.60
32293;DHT22;43233;48.608;8.838;2023-06-04T11:57:51;26.40;24.50
32293;DHT22;43233;48.608;8.838;2023-06-04T12:00:17;26.50;25.40
32293;DHT22;43233;48.608;8.838;2023-06-04T12:02:54;26.60;24.50
32293;DHT22;43233;48.608;8.838;2023-06-04T12:05:22;26.80;24.70
32293;DHT22;43233;48.608;8.838;2023-06-04T12:07:51;26.90;23.10
32293;DHT22;43233;48.608;8.838;2023-06-04T12:10:21;26.90;23.00
32293;DHT22;43233;48.608;8.838;2023-06-04T12:12:54;27.00;23.70
32293;DHT22;43233;48.608;8.838;2023-06-04T12:15:21;27.00;23.40
32293;DHT22;43233;48.608;8.838;2023-06-04T12:17:52;27.00;23.90
32293;DHT22;43233;48.608;8.838;2023-06-04T12:20:31;27.00;24.40
32293;DHT22;43233;48.608;8.838;2023-06-04T12:22:57;27.00;24.50
32293;DHT22;43233;48.608;8.838;2023-06-04T12:25:27;27.00;23.80
32293;DHT22;43233;48.608;8.838;2023-06-04T12:27:53;27.00;23.70
32293;DHT22;43233;48.608;8.838;2023-06-04T12:30:19;27.00;23.90
32293;DHT22;43233;48.608;8.838;2023-06-04T12:32:44;27.00;24.90
32293;DHT22;43233;48.608;8.838;2023-06-04T12:35:13;27.10;24.10
32293;DHT22;43233;48.608;8.838;2023-06-04T12:37:41;27.20;23.60
32293;DHT22;43233;48.608;8.838;2023-06-04T12:40:07;27.20;23.30
32293;DHT22;43233;48.608;8.838;2023-06-04T12:42:33;27.30;23.70
32293;DHT22;43233;48.608;8.838;2023-06-04T12:44:58;27.30;23.30
32293;DHT22;43233;48.608;8.838;2023-06-04T12:47:24;27.20;22.90
32293;DHT22;43233;48.608;8.838;2023-06-04T12:49:50;27.20;23.70
32293;DHT22;43233;48.608;8.838;2023-06-04T12:52:17;27.10;23.40
32293;DHT22;43233;48.608;8.838;2023-06-04T12:54:43;27.10;23.30
32293;DHT22;43233;48.608;8.838;2023-06-04T12:57:09;27.00;23.10
32293;DHT22;43233;48.608;8.838;2023-06-04T12:59:34;27.00;24.40
32293;DHT22;43233;48.608;8.838;2023-06-04T13:02:00;27.10;24.60
32293;DHT22;43233;48.608;8.838;2023-06-04T13:04:26;27.20;21.90
32293;DHT22;43233;48.608;8.838;2023-06-04T13:06:52;27.20;23.50
32293;DHT22;43233;48.608;8.838;2023-06-04T13:09:20;27.30;24.00
32293;DHT22;43233;48.608;8.838;2023-06-04T13:11:48;27.40;23.80
32293;DHT22;43233;48.608;8.838;2023-06-04T13:14:14;27.60;23.30
32293;DHT22;43233;48.608;8.838;2023-06-04T13:16:39;27.70;22.70
32293;DHT22;43233;48.608;8.838;2023-06-04T13:19:06;27.90;22.70
32293;DHT22;43233;48.608;8.838;2023-06-04T13:21:32;28.00;22.40
32293;DHT22;43233;48.608;8.838;2023-06-04T13:23:57;28.20;22.60
32293;DHT22;43233;48.608;8.838;2023-06-04T13:26:23;28.30;21.50
32293;DHT22;43233;48.608;8.838;2023-06-04T13:28:49;28.30;21.10
32293;DHT22;43233;48.608;8.838;2023-06-04T13:31:15;28.40;21.20
32293;DHT22;43233;48.608;8.838;2023-06-04T13:33:40;28.40;21.00
32293;DHT22;43233;48.608;8.838;2023-06-04T13:36:07;28.40;20.80
32293;DHT22;43233;48.608;8.838;2023-06-04T13:38:32;28.40;20.10
32293;DHT22;43233;48.608;8.838;2023-06-04T13:40:58;28.50;20.40
32293;DHT22;43233;48.608;8.838;2023-06-04T13:43:24;28.60;20.00
32293;DHT22;43233;48.608;8.838;2023-06-04T13:45:50;28.50;20.00
32293;DHT22;43233;48.608;8.838;2023-06-04T13:48:15;28.50;20.00
32293;DHT22;43233;48.608;8.838;2023-06-04T13:50:42;28.60;19.90
32293;DHT22;43233;48.608;8.838;2023-06-04T13:53:08;28.60;19.40
32293;DHT22;43233;48.608;8.838;2023-06-04T13:55:34;28.50;19.80
32293;DHT22;43233;48.608;8.838;2023-06-04T13:57:59;28.60;20.00
32293;DHT22;43233;48.608;8.838;2023-06-04T14:00:25;28.60;19.30
32293;DHT22;43233;48.608;8.838;2023-06-04T14:02:51;28.50;19.30
32293;DHT22;43233;48.608;8.838;2023-06-04T14:05:17;28.50;19.30
32293;DHT22;43233;48.608;8.838;2023-06-04T14:07:43;28.40;19.50
32293;DHT22;43233;48.608;8.838;2023-06-04T14:10:10;28.50;19.10
32293;DHT22;43233;48.608;8.838;2023-06-04T14:12:37;28.40;19.50
32293;DHT22;43233;48.608;8.838;2023-06-04T14:15:05;28.50;19.70
32293;DHT22;43233;48.608;8.838;2023-06-04T14:17:31;28.40;19.30
32293;DHT22;43233;48.608;8.838;2023-06-04T14:19:57;28.40;19.10
32293;DHT22;43233;48.608;8.838;2023-06-04T14:22:22;28.40;19.80
32293;DHT22;43233;48.608;8.838;2023-06-04T14:24:48;28.50;19.90
32293;DHT22;43233;48.608;8.838;2023-06-04T14:27:13;28.50;19.70
32293;DHT22;43233;48.608;8.838;2023-06-04T14:29:39;28.50;19.30
32293;DHT22;43233;48.608;8.838;2023-06-04T14:32:05;28.50;19.30
32293;DHT22;43233;48.608;8.838;2023-06-04T14:34:31;28.40;19.00
32293;DHT22;43233;48.608;8.838;2023-06-04T14:36:58;28.30;19.20
32293;DHT22;43233;48.608;8.838;2023-06-04T14:39:25;28.30;19.40
32293;DHT22;43233;48.608;8.838;2023-06-04T14:41:51;28.30;18.70
32293;DHT22;43233;48.608;8.838;2023-06-04T14:44:18;28.20;18.50
32293;DHT22;43233;48.608;8.838;2023-06-04T14:46:43;28.10;19.00
32293;DHT22;43233;48.608;8.838;2023-06-04T14:49:09;28.10;19.60
32293;DHT22;43233;48.608;8.838;2023-06-04T14:51:35;27.90;18.80
32293;DHT22;43233;48.608;8.838;2023-06-04T14:54:01;27.70;18.90
32293;DHT22;43233;48.608;8.838;2023-06-04T14:56:27;27.60;19.30
32293;DHT22;43233;48.608;8.838;2023-06-04T14:58:54;27.50;18.90
32293;DHT22;43233;48.608;8.838;2023-06-04T15:01:19;27.40;19.50
32293;DHT22;43233;48.608;8.838;2023-06-04T15:03:48;27.40;19.80
32293;DHT22;43233;48.608;8.838;2023-06-04T15:06:13;27.40;19.30
32293;DHT22;43233;48.608;8.838;2023-06-04T15:08:39;27.40;19.60
32293;DHT22;43233;48.608;8.838;2023-06-04T15:11:04;27.40;19.30
32293;DHT22;43233;48.608;8.838;2023-06-04T15:13:30;27.30;19.10
32293;DHT22;43233;48.608;8.838;2023-06-04T15:15:56;27.30;19.70
32293;DHT22;43233;48.608;8.838;2023-06-04T15:18:21;27.30;19.40
32293;DHT22;43233;48.608;8.838;2023-06-04T15:20:47;27.30;19.70
32293;DHT22;43233;48.608;8.838;2023-06-04T15:23:12;27.30;19.60
32293;DHT22;43233;48.608;8.838;2023-06-04T15:25:38;27.30;19.20
32293;DHT22;43233;48.608;8.838;2023-06-04T15:28:06;27.30;19.00
32293;DHT22;43233;48.608;8.838;2023-06-04T15:30:32;27.20;19.60
32293;DHT22;43233;48.608;8.838;2023-06-04T15:32:57;27.10;19.90